createdAt,value
2022-12-22T00:00:30.476Z,26.88
2022-12-22T00:01:30.399Z,26.90
2022-12-22T00:02:30.368Z,26.88
2022-12-22T00:03:30.164Z,26.87
2022-12-22T00:54:35.431Z,26.93
2022-12-22T00:55:36.362Z,26.93
2022-12-22T00:56:36.320Z,26.94
2022-12-22T00:57:36.298Z,26.91
2022-12-22T00:58:36.272Z,26.90
2022-12-22T00:59:36.218Z,26.90
2022-12-22T01:00:36.176Z,26.89
2022-12-22T01:01:36.219Z,26.88
2022-12-22T01:02:36.305Z,26.86
2022-12-22T01:03:36.116Z,26.82
2022-12-22T01:04:36.046Z,26.88
2022-12-22T01:05:36.003Z,26.80
2022-12-22T01:06:35.975Z,26.77
2022-12-22T01:07:35.939Z,26.83
2022-12-22T01:08:35.916Z,26.78
2022-12-22T01:09:35.873Z,26.71
2022-12-22T01:10:35.864Z,26.68
2022-12-22T01:11:35.791Z,26.73
2022-12-22T01:12:35.760Z,26.67
2022-12-22T01:13:35.728Z,26.67
2022-12-22T01:14:35.689Z,26.62
2022-12-22T01:15:35.809Z,26.67
2022-12-22T01:16:35.670Z,26.65
2022-12-22T01:17:35.574Z,26.61
2022-12-22T01:18:35.557Z,26.58
2022-12-22T01:19:35.539Z,26.55
2022-12-22T01:20:35.458Z,26.55
2022-12-22T01:21:35.418Z,26.53
2022-12-22T01:22:35.384Z,26.50
2022-12-22T01:23:35.347Z,26.50
2022-12-22T01:24:35.328Z,26.49
2022-12-22T01:25:35.267Z,26.48
2022-12-22T01:26:35.252Z,26.49
2022-12-22T01:27:35.175Z,26.46
2022-12-22T01:28:35.140Z,26.45
2022-12-22T01:29:35.112Z,26.46
2022-12-22T01:30:35.198Z,26.41
2022-12-22T01:31:35.050Z,26.37
2022-12-22T01:32:34.991Z,26.39
2022-12-22T01:33:34.956Z,26.37
2022-12-22T01:34:34.920Z,26.36
2022-12-22T01:35:34.885Z,26.40
2022-12-22T01:36:34.839Z,26.34
2022-12-22T01:37:34.803Z,26.30
2022-12-22T01:38:34.771Z,26.33
2022-12-22T01:39:34.784Z,26.25
2022-12-22T01:40:34.694Z,26.30
2022-12-22T01:41:34.657Z,26.26
2022-12-22T01:42:34.636Z,26.22
2022-12-22T01:43:34.589Z,26.21
2022-12-22T01:44:34.544Z,26.25
2022-12-22T01:45:34.519Z,26.23
2022-12-22T01:46:34.500Z,26.27
2022-12-22T01:47:34.410Z,26.26
2022-12-22T01:48:34.371Z,26.25
2022-12-22T01:49:34.317Z,26.24
2022-12-22T01:50:34.274Z,26.12
2022-12-22T01:51:34.231Z,26.16
2022-12-22T01:52:34.202Z,26.18
2022-12-22T01:53:34.153Z,26.25
2022-12-22T01:54:34.109Z,26.23
2022-12-22T01:55:34.066Z,26.14
2022-12-22T01:56:34.039Z,26.16
2022-12-22T01:57:34.004Z,26.09
2022-12-22T01:58:33.958Z,26.09
2022-12-22T01:59:33.984Z,26.16
2022-12-22T02:00:33.835Z,26.17
2022-12-22T02:01:33.973Z,26.18
2022-12-22T02:02:33.952Z,26.16
2022-12-22T02:03:33.840Z,26.12
2022-12-22T02:04:33.675Z,26.13
2022-12-22T02:05:33.609Z,26.14
2022-12-22T02:06:33.574Z,26.17
2022-12-22T02:07:33.522Z,26.14
2022-12-22T02:08:33.476Z,26.17
2022-12-22T02:09:33.441Z,26.16
2022-12-22T02:10:33.396Z,26.13
2022-12-22T02:11:33.339Z,26.12
2022-12-22T02:12:33.295Z,26.13
2022-12-22T02:13:33.237Z,26.04
2022-12-22T02:14:33.211Z,26.07
2022-12-22T02:15:33.129Z,26.07
2022-12-22T02:16:33.212Z,26.01
2022-12-22T02:17:33.032Z,26.08
2022-12-22T02:18:32.990Z,26.07
2022-12-22T02:19:32.929Z,26.07
2022-12-22T02:20:32.878Z,26.06
2022-12-22T02:21:32.829Z,26.05
2022-12-22T02:22:32.787Z,26.04
2022-12-22T02:23:32.744Z,26.05
2022-12-22T02:24:32.704Z,26.04
2022-12-22T02:25:32.653Z,26.00
2022-12-22T02:26:32.611Z,26.02
2022-12-22T02:27:32.574Z,26.03
2022-12-22T02:28:32.526Z,26.08
2022-12-22T02:29:32.478Z,26.01
2022-12-22T02:30:32.464Z,26.00
2022-12-22T02:31:32.474Z,26.03
2022-12-22T02:32:32.343Z,26.05
2022-12-22T02:33:32.298Z,26.00
2022-12-22T02:34:32.257Z,26.00
2022-12-22T02:35:32.197Z,26.04
2022-12-22T02:36:32.189Z,25.96
2022-12-22T02:37:32.115Z,25.97
2022-12-22T02:38:32.064Z,25.98
2022-12-22T02:39:32.021Z,25.96
2022-12-22T02:40:38.817Z,25.94
2022-12-22T02:41:31.934Z,26.00
2022-12-22T02:42:31.894Z,25.94
2022-12-22T02:43:31.856Z,25.97
2022-12-22T02:44:31.795Z,25.90
2022-12-22T02:45:31.748Z,25.96
2022-12-22T02:46:31.769Z,25.92
2022-12-22T02:47:31.664Z,25.90
2022-12-22T02:48:31.604Z,25.96
2022-12-22T02:49:31.583Z,25.98
2022-12-22T02:50:31.518Z,25.92
2022-12-22T02:51:31.479Z,25.92
2022-12-22T02:52:31.444Z,25.92
2022-12-22T02:53:31.403Z,25.87
2022-12-22T02:54:31.376Z,25.92
2022-12-22T02:55:31.313Z,25.79
2022-12-22T02:56:31.274Z,25.86
2022-12-22T02:57:31.236Z,25.90
2022-12-22T02:58:31.187Z,25.92
2022-12-22T02:59:31.234Z,25.84
2022-12-22T03:00:31.123Z,25.89
2022-12-22T03:01:31.244Z,25.93
2022-12-22T03:02:31.268Z,25.89
2022-12-22T03:03:31.290Z,25.92
2022-12-22T03:04:30.940Z,25.89
2022-12-22T03:05:30.973Z,25.90
2022-12-22T03:06:30.895Z,25.89
2022-12-22T03:07:30.817Z,25.90
2022-12-22T03:08:30.781Z,25.82
2022-12-22T03:09:30.779Z,25.85
2022-12-22T03:10:30.701Z,25.87
2022-12-22T03:11:30.670Z,25.82
2022-12-22T03:12:30.652Z,25.83
2022-12-22T03:13:30.605Z,25.87
2022-12-22T03:14:30.536Z,25.82
2022-12-22T03:15:30.506Z,25.86
2022-12-22T03:16:30.582Z,25.82
2022-12-22T03:17:30.413Z,25.84
2022-12-22T03:18:30.436Z,25.84
2022-12-22T03:19:30.363Z,25.84
2022-12-22T03:20:30.290Z,25.85
2022-12-22T03:21:30.246Z,25.79
2022-12-22T03:22:30.230Z,25.81
2022-12-22T03:23:30.160Z,25.81
2022-12-22T03:24:30.109Z,25.78
2022-12-22T03:25:30.070Z,25.84
2022-12-22T03:26:30.028Z,25.82
2022-12-22T03:27:30.047Z,25.78
2022-12-22T03:28:29.979Z,25.74
2022-12-22T03:29:29.908Z,25.84
2022-12-22T03:30:29.872Z,25.84
2022-12-22T03:31:29.920Z,25.75
2022-12-22T03:32:29.832Z,25.69
2022-12-22T03:33:29.760Z,25.69
2022-12-22T03:34:29.756Z,25.65
2022-12-22T03:35:29.705Z,25.66
2022-12-22T03:36:29.670Z,25.58
2022-12-22T03:37:29.702Z,25.62
2022-12-22T03:38:29.583Z,25.62
2022-12-22T03:39:29.590Z,25.62
2022-12-22T03:40:29.505Z,25.63
2022-12-22T03:41:29.478Z,25.60
2022-12-22T03:42:29.435Z,25.62
2022-12-22T03:43:29.390Z,25.70
2022-12-22T03:44:29.363Z,25.69
2022-12-22T03:45:29.307Z,25.73
2022-12-22T03:46:29.296Z,25.66
2022-12-22T03:47:29.214Z,25.67
2022-12-22T03:48:29.176Z,25.73
2022-12-22T03:49:29.137Z,25.73
2022-12-22T03:50:29.124Z,25.74
2022-12-22T03:51:29.059Z,25.70
2022-12-22T03:52:29.019Z,25.67
2022-12-22T03:53:28.983Z,25.62
2022-12-22T03:54:28.943Z,25.68
2022-12-22T03:55:28.931Z,25.73
2022-12-22T03:56:28.871Z,25.66
2022-12-22T03:57:28.810Z,25.70
2022-12-22T03:58:28.771Z,25.66
2022-12-22T03:59:28.737Z,25.66
2022-12-22T04:00:28.733Z,25.65
2022-12-22T04:01:28.804Z,25.66
2022-12-22T04:02:28.709Z,25.66
2022-12-22T04:03:28.634Z,25.64
2022-12-22T04:04:28.527Z,25.67
2022-12-22T04:05:28.494Z,25.61
2022-12-22T04:06:28.483Z,25.62
2022-12-22T04:07:28.409Z,25.65
2022-12-22T04:08:28.385Z,25.62
2022-12-22T04:09:28.334Z,25.60
2022-12-22T04:10:28.290Z,25.63
2022-12-22T04:11:28.241Z,25.67
2022-12-22T04:12:28.200Z,25.63
2022-12-22T04:13:28.164Z,25.65
2022-12-22T04:14:33.811Z,25.62
2022-12-22T04:15:28.106Z,25.58
2022-12-22T04:16:28.136Z,25.63
2022-12-22T04:17:27.994Z,25.63
2022-12-22T04:18:27.961Z,25.62
2022-12-22T04:19:27.923Z,25.60
2022-12-22T04:20:27.897Z,25.57
2022-12-22T04:21:27.837Z,25.62
2022-12-22T04:22:27.816Z,25.60
2022-12-22T04:23:27.755Z,25.60
2022-12-22T04:24:27.785Z,25.60
2022-12-22T04:25:27.677Z,25.58
2022-12-22T04:26:27.643Z,25.62
2022-12-22T04:27:27.584Z,25.59
2022-12-22T04:28:27.705Z,25.59
2022-12-22T04:29:27.579Z,25.55
2022-12-22T04:30:28.249Z,25.53
2022-12-22T04:31:27.509Z,25.55
2022-12-22T04:32:27.379Z,25.60
2022-12-22T04:33:27.338Z,25.56
2022-12-22T04:34:27.298Z,25.56
2022-12-22T04:35:27.305Z,25.51
2022-12-22T04:36:27.225Z,25.50
2022-12-22T04:37:27.180Z,25.50
2022-12-22T04:38:27.179Z,25.46
2022-12-22T04:39:27.134Z,25.49
2022-12-22T04:40:27.071Z,25.54
2022-12-22T04:41:27.031Z,25.54
2022-12-22T04:42:27.000Z,25.52
2022-12-22T04:43:26.955Z,25.58
2022-12-22T04:44:26.942Z,25.51
2022-12-22T04:45:27.026Z,25.52
2022-12-22T04:46:26.962Z,25.52
2022-12-22T04:47:26.800Z,25.56
2022-12-22T04:48:26.762Z,25.55
2022-12-22T04:49:26.843Z,25.56
2022-12-22T04:50:26.691Z,25.57
2022-12-22T04:51:26.663Z,25.52
2022-12-22T04:52:26.617Z,25.52
2022-12-22T04:53:26.575Z,25.54
2022-12-22T04:54:26.556Z,25.54
2022-12-22T04:55:26.498Z,25.49
2022-12-22T04:56:25.452Z,25.47
2022-12-22T04:57:26.421Z,25.54
2022-12-22T04:58:26.444Z,25.50
2022-12-22T04:59:26.381Z,25.51
2022-12-22T05:00:26.308Z,25.50
2022-12-22T05:01:26.496Z,25.50
2022-12-22T05:02:26.405Z,25.49
2022-12-22T05:03:26.274Z,25.49
2022-12-22T05:04:26.170Z,25.49
2022-12-22T05:05:26.167Z,25.50
2022-12-22T05:06:26.072Z,25.47
2022-12-22T05:07:26.045Z,25.50
2022-12-22T05:08:26.005Z,25.44
2022-12-22T05:09:26.042Z,25.49
2022-12-22T05:10:25.960Z,25.44
2022-12-22T05:11:25.890Z,25.49
2022-12-22T05:12:25.852Z,25.44
2022-12-22T05:13:25.807Z,25.49
2022-12-22T05:14:25.799Z,25.46
2022-12-22T05:15:25.723Z,25.49
2022-12-22T05:16:26.331Z,25.49
2022-12-22T05:17:25.709Z,25.43
2022-12-22T05:18:25.610Z,25.44
2022-12-22T05:19:30.597Z,25.43
2022-12-22T05:20:25.523Z,25.44
2022-12-22T05:21:25.489Z,25.41
2022-12-22T05:22:25.479Z,25.35
2022-12-22T05:23:25.400Z,25.44
2022-12-22T05:24:25.358Z,25.46
2022-12-22T05:25:28.528Z,25.50
2022-12-22T05:26:25.348Z,25.40
2022-12-22T05:27:25.242Z,25.43
2022-12-22T05:28:25.206Z,25.40
2022-12-22T05:29:25.161Z,25.44
2022-12-22T05:30:25.188Z,25.42
2022-12-22T05:31:25.322Z,25.39
2022-12-22T05:32:25.046Z,25.42
2022-12-22T05:33:25.002Z,25.43
2022-12-22T05:34:24.962Z,25.42
2022-12-22T05:35:24.909Z,25.39
2022-12-22T05:36:24.896Z,25.40
2022-12-22T05:37:24.820Z,25.39
2022-12-22T05:38:24.775Z,25.35
2022-12-22T05:39:24.751Z,25.26
2022-12-22T05:40:24.705Z,25.28
2022-12-22T05:41:24.698Z,25.27
2022-12-22T05:42:24.625Z,25.24
2022-12-22T05:43:24.557Z,25.22
2022-12-22T05:44:24.534Z,25.13
2022-12-22T05:45:24.470Z,25.13
2022-12-22T05:46:24.638Z,25.11
2022-12-22T05:47:24.382Z,25.12
2022-12-22T05:48:29.544Z,25.12
2022-12-22T05:49:24.293Z,25.13
2022-12-22T05:50:24.249Z,25.27
2022-12-22T05:51:24.236Z,25.32
2022-12-22T05:52:24.169Z,25.35
2022-12-22T05:53:24.132Z,25.36
2022-12-22T05:54:24.139Z,25.38
2022-12-22T05:55:24.036Z,25.34
2022-12-22T05:56:23.995Z,25.36
2022-12-22T05:57:23.963Z,25.35
2022-12-22T05:58:23.982Z,25.30
2022-12-22T05:59:23.875Z,25.32
2022-12-22T06:00:23.834Z,25.35
2022-12-22T06:01:23.869Z,25.27
2022-12-22T06:02:24.029Z,25.27
2022-12-22T06:03:23.799Z,25.07
2022-12-22T06:04:23.892Z,25.11
2022-12-22T06:05:23.624Z,25.05
2022-12-22T06:06:23.608Z,25.01
2022-12-22T06:07:23.539Z,25.03
2022-12-22T06:08:23.523Z,24.97
2022-12-22T06:09:23.447Z,24.98
2022-12-22T06:10:23.402Z,25.09
2022-12-22T06:11:23.377Z,25.13
2022-12-22T06:12:24.297Z,25.16
2022-12-22T06:13:23.265Z,25.23
2022-12-22T06:14:23.256Z,25.24
2022-12-22T06:15:23.188Z,25.20
2022-12-22T06:16:23.321Z,25.20
2022-12-22T06:17:23.100Z,25.19
2022-12-22T06:18:23.068Z,25.21
2022-12-22T06:19:23.976Z,25.20
2022-12-22T06:20:22.989Z,25.13
2022-12-22T06:21:22.933Z,25.22
2022-12-22T06:22:23.321Z,25.22
2022-12-22T06:23:22.882Z,25.21
2022-12-22T06:24:22.789Z,25.11
2022-12-22T06:25:23.695Z,24.71
2022-12-22T06:26:22.694Z,24.65
2022-12-22T06:27:22.655Z,24.70
2022-12-22T06:28:22.624Z,24.62
2022-12-22T06:29:22.575Z,24.68
2022-12-22T06:30:29.114Z,24.73
2022-12-22T06:31:22.857Z,24.67
2022-12-22T06:32:22.434Z,25.39
2022-12-22T06:33:22.415Z,25.05
2022-12-22T06:34:22.369Z,24.88
2022-12-22T06:35:22.319Z,24.87
2022-12-22T06:36:22.282Z,24.89
2022-12-22T06:37:22.318Z,24.93
2022-12-22T06:38:22.183Z,24.93
2022-12-22T06:39:22.141Z,24.98
2022-12-22T06:40:22.100Z,24.96
2022-12-22T06:41:22.054Z,25.02
2022-12-22T06:42:22.328Z,25.00
2022-12-22T06:43:21.985Z,25.02
2022-12-22T06:44:21.948Z,25.07
2022-12-22T06:45:21.886Z,25.27
2022-12-22T06:46:21.928Z,26.07
2022-12-22T06:47:22.341Z,26.07
2022-12-22T06:48:22.387Z,26.95
2022-12-22T06:49:21.728Z,26.77
2022-12-22T06:50:21.663Z,26.51
2022-12-22T06:51:21.620Z,26.30
2022-12-22T06:52:21.801Z,26.37
2022-12-22T06:53:21.809Z,26.85
2022-12-22T06:54:26.159Z,27.11
2022-12-22T06:55:21.841Z,27.05
2022-12-22T06:56:21.412Z,27.18
2022-12-22T06:57:21.386Z,27.17
2022-12-22T06:58:21.319Z,27.06
2022-12-22T06:59:21.278Z,26.68
2022-12-22T07:00:21.330Z,26.61
2022-12-22T07:01:21.313Z,26.19
2022-12-22T07:02:21.569Z,26.14
2022-12-22T07:03:21.437Z,25.63
2022-12-22T07:04:21.075Z,25.35
2022-12-22T07:05:21.036Z,25.29
2022-12-22T07:06:20.996Z,25.18
2022-12-22T07:07:20.952Z,24.93
2022-12-22T07:08:21.312Z,24.98
2022-12-22T07:09:20.880Z,24.97
2022-12-22T07:10:21.336Z,24.86
2022-12-22T07:11:20.791Z,24.90
2022-12-22T07:12:20.746Z,24.66
2022-12-22T07:13:20.803Z,24.83
2022-12-22T07:14:20.668Z,24.87
2022-12-22T07:15:20.635Z,24.84
2022-12-22T07:16:20.709Z,24.75
2022-12-22T07:17:20.540Z,25.00
2022-12-22T07:18:20.837Z,24.92
2022-12-22T07:19:20.452Z,24.94
2022-12-22T07:20:20.413Z,24.73
2022-12-22T07:21:20.365Z,24.65
2022-12-22T07:22:25.660Z,24.75
2022-12-22T07:23:20.316Z,24.71
2022-12-22T07:24:20.514Z,24.72
2022-12-22T07:25:20.205Z,24.65
2022-12-22T07:26:20.155Z,24.58
2022-12-22T07:27:20.110Z,24.57
2022-12-22T07:28:21.173Z,24.66
2022-12-22T07:29:20.046Z,24.42
2022-12-22T07:30:23.174Z,24.35
2022-12-22T07:31:19.974Z,24.53
2022-12-22T07:32:19.892Z,24.38
2022-12-22T07:33:19.857Z,24.31
2022-12-22T07:34:19.827Z,24.45
2022-12-22T07:35:19.761Z,24.40
2022-12-22T07:36:19.829Z,24.48
2022-12-22T07:37:19.675Z,24.39
2022-12-22T07:38:19.627Z,24.53
2022-12-22T07:39:19.585Z,24.46
2022-12-22T07:40:19.546Z,24.42
2022-12-22T07:41:19.851Z,24.35
2022-12-22T07:42:19.462Z,24.46
2022-12-22T07:43:19.419Z,24.31
2022-12-22T07:44:20.052Z,24.35
2022-12-22T07:45:19.666Z,24.35
2022-12-22T07:46:19.756Z,24.35
2022-12-22T07:47:19.580Z,24.35
2022-12-22T07:48:19.777Z,24.38
2022-12-22T07:49:19.664Z,24.35
2022-12-22T07:50:19.660Z,24.37
2022-12-22T07:51:19.674Z,24.37
2022-12-22T07:52:19.580Z,24.40
2022-12-22T07:53:19.796Z,24.41
2022-12-22T07:54:19.450Z,24.39
2022-12-22T07:55:19.303Z,24.42
2022-12-22T07:56:19.188Z,24.42
2022-12-22T07:57:19.752Z,24.48
2022-12-22T07:58:19.003Z,24.49
2022-12-22T07:59:19.092Z,24.45
2022-12-22T08:00:19.195Z,24.45
2022-12-22T08:01:19.047Z,24.58
2022-12-22T08:02:19.402Z,24.66
2022-12-22T08:03:19.248Z,24.66
2022-12-22T08:04:19.060Z,24.60
2022-12-22T08:05:18.931Z,24.48
2022-12-22T08:06:19.006Z,24.49
2022-12-22T08:07:19.327Z,24.45
2022-12-22T08:08:19.016Z,24.37
2022-12-22T08:09:18.732Z,24.33
2022-12-22T08:10:18.742Z,24.30
2022-12-22T08:11:18.699Z,24.27
2022-12-22T08:12:18.621Z,24.24
2022-12-22T08:13:18.276Z,24.21
2022-12-22T08:14:18.131Z,24.29
2022-12-22T08:15:18.360Z,24.25
2022-12-22T08:16:18.392Z,24.23
2022-12-22T08:17:18.016Z,24.25
2022-12-22T08:18:17.970Z,24.17
2022-12-22T08:19:17.931Z,24.21
2022-12-22T08:20:17.893Z,24.26
2022-12-22T08:21:18.332Z,24.29
2022-12-22T08:22:17.837Z,24.26
2022-12-22T08:23:17.775Z,24.21
2022-12-22T08:24:18.172Z,24.30
2022-12-22T08:25:17.680Z,24.27
2022-12-22T08:26:17.864Z,24.22
2022-12-22T08:27:25.551Z,24.22
2022-12-22T08:28:17.562Z,24.28
2022-12-22T08:29:17.529Z,24.19
2022-12-22T08:30:17.490Z,24.29
2022-12-22T08:31:17.943Z,24.18
2022-12-22T08:32:17.410Z,24.14
2022-12-22T08:33:17.835Z,24.10
2022-12-22T08:34:17.333Z,24.11
2022-12-22T08:35:17.320Z,24.17
2022-12-22T08:36:17.366Z,24.18
2022-12-22T08:37:17.214Z,24.23
2022-12-22T08:38:17.363Z,24.51
2022-12-22T08:39:17.382Z,24.58
2022-12-22T08:40:17.102Z,24.82
2022-12-22T08:41:17.065Z,25.16
2022-12-22T08:42:17.344Z,25.06
2022-12-22T08:43:16.993Z,25.09
2022-12-22T08:44:16.960Z,25.13
2022-12-22T08:45:16.916Z,25.40
2022-12-22T08:46:17.007Z,26.77
2022-12-22T08:47:17.522Z,25.77
2022-12-22T08:48:16.809Z,25.70
2022-12-22T08:49:16.747Z,25.77
2022-12-22T08:50:16.700Z,26.03
2022-12-22T08:51:16.639Z,25.95
2022-12-22T08:52:18.835Z,26.36
2022-12-22T08:53:45.204Z,26.22
2022-12-22T08:54:16.526Z,26.28
2022-12-22T08:55:16.458Z,26.32
2022-12-22T08:56:16.402Z,26.25
2022-12-22T08:57:16.876Z,26.20
2022-12-22T08:58:16.319Z,26.10
2022-12-22T08:59:16.272Z,25.98
2022-12-22T09:00:16.267Z,25.93
2022-12-22T09:01:16.220Z,25.88
2022-12-22T09:02:16.295Z,25.85
2022-12-22T09:03:16.434Z,25.91
2022-12-22T09:04:16.128Z,25.82
2022-12-22T09:05:16.019Z,25.75
2022-12-22T09:06:15.995Z,25.85
2022-12-22T09:07:15.958Z,25.82
2022-12-22T09:08:16.354Z,25.82
2022-12-22T09:09:15.876Z,25.99
2022-12-22T09:10:15.856Z,26.13
2022-12-22T09:11:15.786Z,26.35
2022-12-22T09:12:15.743Z,26.46
2022-12-22T09:13:15.849Z,26.79
2022-12-22T09:14:15.709Z,27.54
2022-12-22T09:15:15.642Z,27.37
2022-12-22T09:16:15.914Z,28.13
2022-12-22T09:17:15.544Z,27.80
2022-12-22T09:18:15.497Z,27.84
2022-12-22T09:19:15.446Z,27.77
2022-12-22T09:20:15.401Z,27.72
2022-12-22T09:21:15.405Z,27.60
2022-12-22T09:22:15.303Z,27.61
2022-12-22T09:23:15.259Z,27.61
2022-12-22T09:24:15.238Z,27.67
2022-12-22T09:25:15.162Z,27.66
2022-12-22T09:26:15.148Z,27.71
2022-12-22T09:27:15.072Z,27.70
2022-12-22T09:28:15.034Z,27.68
2022-12-22T09:29:15.003Z,27.66
2022-12-22T09:30:15.390Z,27.65
2022-12-22T09:31:16.120Z,27.61
2022-12-22T09:32:14.928Z,27.63
2022-12-22T09:33:14.826Z,27.64
2022-12-22T09:34:18.207Z,27.60
2022-12-22T09:35:14.944Z,27.61
2022-12-22T09:36:14.708Z,27.66
2022-12-22T09:37:14.680Z,27.62
2022-12-22T09:38:14.630Z,27.54
2022-12-22T09:39:14.588Z,27.58
2022-12-22T09:40:14.909Z,27.54
2022-12-22T09:41:14.513Z,27.57
2022-12-22T09:42:14.506Z,27.62
2022-12-22T09:43:14.448Z,27.64
2022-12-22T09:44:14.441Z,27.61
2022-12-22T09:45:17.137Z,27.55
2022-12-22T09:46:14.407Z,27.58
2022-12-22T09:47:14.256Z,27.64
2022-12-22T09:48:14.218Z,27.59
2022-12-22T09:49:14.180Z,27.55
2022-12-22T09:50:14.436Z,27.51
2022-12-22T09:51:14.092Z,27.50
2022-12-22T09:52:14.052Z,27.48
2022-12-22T09:53:14.001Z,27.51
2022-12-22T09:54:13.973Z,27.51
2022-12-22T09:55:13.956Z,27.44
2022-12-22T09:56:14.367Z,27.43
2022-12-22T09:57:13.851Z,27.47
2022-12-22T09:58:13.841Z,27.45
2022-12-22T09:59:13.765Z,27.40
2022-12-22T10:00:13.740Z,27.39
2022-12-22T10:01:13.937Z,27.43
2022-12-22T10:02:13.699Z,27.39
2022-12-22T10:03:13.682Z,27.38
2022-12-22T10:04:13.560Z,27.36
2022-12-22T10:05:13.900Z,27.36
2022-12-22T10:06:13.467Z,27.28
2022-12-22T10:07:13.439Z,27.41
2022-12-22T10:08:13.376Z,27.28
2022-12-22T10:09:44.030Z,27.00
2022-12-22T10:10:13.349Z,26.66
2022-12-22T10:11:13.233Z,26.90
2022-12-22T10:12:13.225Z,27.04
2022-12-22T10:13:13.149Z,27.15
2022-12-22T10:14:13.128Z,27.32
2022-12-22T10:15:18.313Z,27.43
2022-12-22T10:16:13.052Z,27.53
2022-12-22T10:17:13.019Z,28.18
2022-12-22T10:18:13.372Z,27.65
2022-12-22T10:19:12.910Z,26.86
2022-12-22T10:20:13.407Z,25.91
2022-12-22T10:21:12.821Z,25.34
2022-12-22T10:22:12.781Z,26.38
2022-12-22T10:23:12.751Z,24.96
2022-12-22T10:24:12.725Z,24.55
2022-12-22T10:25:12.897Z,25.20
2022-12-22T10:26:30.316Z,25.16
2022-12-22T10:27:12.661Z,26.08
2022-12-22T10:28:12.641Z,26.27
2022-12-22T10:29:12.641Z,26.33
2022-12-22T10:30:12.951Z,26.89
2022-12-22T10:31:12.562Z,27.49
2022-12-22T10:32:12.675Z,27.46
2022-12-22T10:33:12.516Z,27.73
2022-12-22T10:34:12.471Z,27.78
2022-12-22T10:35:12.420Z,27.29
2022-12-22T10:36:12.931Z,25.82
2022-12-22T10:37:12.353Z,24.87
2022-12-22T10:38:21.076Z,24.62
2022-12-22T10:39:12.307Z,24.33
2022-12-22T10:40:12.287Z,24.22
2022-12-22T10:41:12.286Z,24.24
2022-12-22T10:42:12.263Z,24.24
2022-12-22T10:43:12.236Z,24.38
2022-12-22T10:44:12.383Z,24.53
2022-12-22T10:45:12.202Z,24.76
2022-12-22T10:46:12.611Z,24.51
2022-12-22T10:47:17.162Z,24.95
2022-12-22T10:48:12.176Z,25.36
2022-12-22T10:49:12.152Z,25.52
2022-12-22T10:50:12.142Z,26.03
2022-12-22T10:51:12.508Z,25.97
2022-12-22T10:52:12.116Z,26.60
2022-12-22T10:53:12.088Z,26.35
2022-12-22T10:54:12.068Z,26.27
2022-12-22T10:55:12.050Z,26.32
2022-12-22T10:56:12.044Z,26.55
2022-12-22T10:57:12.391Z,26.47
2022-12-22T10:58:11.997Z,26.35
2022-12-22T10:59:11.949Z,26.56
2022-12-22T11:00:11.923Z,26.34
2022-12-22T11:01:11.960Z,26.23
2022-12-22T11:02:12.056Z,25.84
2022-12-22T11:03:12.134Z,25.93
2022-12-22T11:04:11.865Z,25.57
2022-12-22T11:05:11.777Z,25.72
2022-12-22T11:06:11.749Z,25.95
2022-12-22T11:07:11.887Z,25.94
2022-12-22T11:08:11.702Z,25.91
2022-12-22T11:09:32.634Z,26.72
2022-12-22T11:10:11.661Z,27.08
2022-12-22T11:11:11.925Z,26.80
2022-12-22T11:12:11.888Z,26.62
2022-12-22T11:13:11.573Z,25.22
2022-12-22T11:14:11.548Z,25.03
2022-12-22T11:15:11.543Z,25.25
2022-12-22T11:16:11.562Z,25.31
2022-12-22T11:17:11.985Z,25.97
2022-12-22T11:18:11.495Z,26.32
2022-12-22T11:19:11.453Z,26.52
2022-12-22T11:20:11.440Z,26.70
2022-12-22T11:21:11.513Z,26.73
2022-12-22T11:22:11.417Z,26.72
2022-12-22T11:23:11.391Z,26.72
2022-12-22T11:24:11.393Z,26.69
2022-12-22T11:25:11.338Z,26.62
2022-12-22T11:26:11.415Z,26.53
2022-12-22T11:27:11.279Z,26.42
2022-12-22T11:28:11.245Z,26.42
2022-12-22T11:29:11.236Z,26.26
2022-12-22T11:30:11.206Z,26.21
2022-12-22T11:31:11.510Z,26.11
2022-12-22T11:32:11.145Z,26.10
2022-12-22T11:33:11.105Z,25.99
2022-12-22T11:34:15.903Z,25.87
2022-12-22T11:35:11.026Z,25.81
2022-12-22T11:36:10.991Z,25.76
2022-12-22T11:37:10.963Z,25.62
2022-12-22T11:38:10.933Z,25.62
2022-12-22T11:39:10.893Z,25.61
2022-12-22T11:40:10.879Z,25.54
2022-12-22T11:41:10.838Z,25.51
2022-12-22T11:42:10.903Z,25.46
2022-12-22T11:43:10.767Z,25.42
2022-12-22T11:44:10.717Z,25.43
2022-12-22T11:45:10.676Z,25.39
2022-12-22T11:46:10.687Z,25.37
2022-12-22T11:47:10.921Z,25.32
2022-12-22T11:48:09.562Z,25.25
2022-12-22T11:49:10.524Z,25.22
2022-12-22T11:50:58.846Z,25.23
2022-12-22T11:51:13.312Z,25.16
2022-12-22T11:52:10.920Z,25.18
2022-12-22T11:53:10.433Z,25.15
2022-12-22T11:54:11.712Z,25.15
2022-12-22T11:55:10.354Z,25.11
2022-12-22T11:56:10.404Z,25.13
2022-12-22T11:57:10.236Z,25.13
2022-12-22T11:58:10.191Z,25.11
2022-12-22T11:59:10.152Z,25.11
2022-12-22T12:00:10.125Z,25.05
2022-12-22T12:01:19.015Z,25.07
2022-12-22T12:02:10.130Z,25.04
2022-12-22T12:03:10.155Z,25.06
2022-12-22T12:04:10.148Z,25.08
2022-12-22T12:05:09.950Z,25.11
2022-12-22T12:06:09.933Z,25.08
2022-12-22T12:07:09.867Z,25.03
2022-12-22T12:08:09.824Z,25.10
2022-12-22T12:09:09.839Z,25.03
2022-12-22T12:10:09.755Z,25.00
2022-12-22T12:11:09.714Z,25.10
2022-12-22T12:12:09.688Z,25.15
2022-12-22T12:13:09.665Z,25.45
2022-12-22T12:14:09.611Z,25.62
2022-12-22T12:15:09.573Z,25.90
2022-12-22T12:16:09.608Z,25.86
2022-12-22T12:17:09.496Z,26.16
2022-12-22T12:18:09.461Z,26.14
2022-12-22T12:19:09.411Z,26.07
2022-12-22T12:20:09.373Z,29.64
2022-12-22T12:21:09.329Z,32.15
2022-12-22T12:22:09.322Z,37.59
2022-12-22T12:23:09.253Z,37.39
2022-12-22T12:24:09.216Z,39.89
2022-12-22T12:25:09.193Z,39.04
2022-12-22T12:26:09.151Z,38.74
2022-12-22T12:27:09.435Z,38.14
2022-12-22T12:28:09.063Z,38.25
2022-12-22T12:29:09.027Z,37.81
2022-12-22T12:31:08.988Z,37.25
2022-12-22T12:32:09.067Z,37.16
2022-12-22T12:33:08.908Z,36.79
2022-12-22T12:34:08.831Z,36.22
2022-12-22T12:35:08.825Z,35.19
2022-12-22T12:36:08.756Z,35.19
2022-12-22T12:37:08.953Z,35.50
2022-12-22T12:38:08.710Z,34.76
2022-12-22T12:39:09.487Z,34.22
2022-12-22T12:40:08.595Z,33.75
2022-12-22T12:41:08.542Z,33.49
2022-12-22T12:42:08.963Z,32.97
2022-12-22T12:43:12.590Z,32.95
2022-12-22T12:44:08.444Z,32.79
2022-12-22T12:45:08.366Z,32.79
2022-12-22T12:46:08.357Z,32.68
2022-12-22T12:47:08.373Z,32.46
2022-12-22T12:48:08.260Z,32.48
2022-12-22T12:49:08.214Z,32.49
2022-12-22T12:50:08.180Z,32.64
2022-12-22T12:51:08.131Z,32.67
2022-12-22T12:52:08.132Z,33.11
2022-12-22T12:53:08.081Z,33.02
2022-12-22T12:54:08.040Z,32.98
2022-12-22T12:55:07.979Z,32.72
2022-12-22T12:56:07.971Z,32.74
2022-12-22T12:57:07.927Z,33.09
2022-12-22T12:58:07.865Z,33.09
2022-12-22T12:59:07.828Z,32.91
2022-12-22T13:00:07.789Z,32.89
2022-12-22T13:01:07.927Z,32.81
2022-12-22T13:02:07.940Z,32.71
2022-12-22T13:03:07.863Z,32.93
2022-12-22T13:04:07.757Z,33.09
2022-12-22T13:05:07.578Z,33.12
2022-12-22T13:06:07.594Z,33.04
2022-12-22T13:07:07.489Z,32.91
2022-12-22T13:08:07.435Z,32.87
2022-12-22T13:09:48.356Z,32.90
2022-12-22T13:10:07.388Z,32.76
2022-12-22T13:11:07.318Z,32.74
2022-12-22T13:12:18.320Z,32.69
2022-12-22T13:13:07.268Z,32.56
2022-12-22T13:14:07.291Z,32.53
2022-12-22T13:15:07.145Z,32.49
2022-12-22T13:16:07.202Z,32.56
2022-12-22T13:17:07.087Z,32.53
2022-12-22T13:18:07.145Z,32.50
2022-12-22T13:19:06.987Z,32.41
2022-12-22T13:20:06.951Z,32.34
2022-12-22T13:21:42.576Z,32.40
2022-12-22T13:22:06.890Z,32.37
2022-12-22T13:23:06.843Z,32.30
2022-12-22T13:24:24.116Z,32.34
2022-12-22T13:25:06.717Z,32.21
2022-12-22T13:26:06.715Z,32.25
2022-12-22T13:27:06.645Z,32.24
2022-12-22T13:28:06.613Z,32.13
2022-12-22T13:29:06.539Z,32.05
2022-12-22T13:30:11.280Z,32.10
2022-12-22T13:31:06.492Z,32.04
2022-12-22T13:32:06.501Z,31.93
2022-12-22T13:33:06.371Z,31.93
2022-12-22T13:34:06.324Z,31.90
2022-12-22T13:36:06.241Z,31.81
2022-12-22T13:37:06.192Z,31.72
2022-12-22T13:38:06.174Z,31.75
2022-12-22T13:39:06.115Z,31.71
2022-12-22T13:40:06.070Z,31.58
2022-12-22T13:41:06.036Z,31.61
2022-12-22T13:42:06.077Z,31.54
2022-12-22T13:43:06.007Z,31.47
2022-12-22T13:44:05.920Z,31.50